Time;durP1;ratioP1;P1;durP2;ratioP2;P2;SDS_P1;SDS_P2;PMS_P1;PMS_P2;Temp;Humidity;BMP_temperature;BMP_pressure;BME280_temperature;BME280_humidity;BME280_pressure;Samples;Min_cycle;Max_cycle;Signal;HPM_P1;HPM_P2
2021/06/26 00:00:12;;;;;;;16.00;14.30;;;18.80;99.90;;;19.21;85.97;101734.03;5116252;28;19923;-73
2021/06/26 00:02:41;;;;;;;16.95;15.25;;;18.90;99.90;;;19.23;85.71;101742.94;5098235;28;20100;-73
2021/06/26 00:05:12;;;;;;;18.77;16.13;;;18.90;99.90;;;19.17;85.99;101744.88;5116321;28;20075;-73
2021/06/26 00:07:41;;;;;;;19.38;17.35;;;18.80;99.90;;;19.03;86.23;101731.81;5116392;28;20405;-73
2021/06/26 00:10:12;;;;;;;20.45;18.42;;;18.70;99.90;;;19.18;86.05;101739.47;5115783;28;20063;-73
2021/06/26 00:12:40;;;;;;;19.42;17.38;;;18.70;99.90;;;19.23;86.01;101734.88;5116070;28;20044;-73
2021/06/26 00:15:13;;;;;;;18.85;16.65;;;18.80;99.90;;;19.31;85.79;101748.09;5115957;28;20043;-73
2021/06/26 00:17:41;;;;;;;21.70;19.40;;;18.90;99.90;;;19.31;85.61;101745.41;5097954;28;20047;-73
2021/06/26 00:20:11;;;;;;;19.98;17.88;;;18.90;99.90;;;19.26;85.63;101741.97;5115973;28;20051;-73
2021/06/26 00:22:40;;;;;;;20.70;18.65;;;18.80;99.90;;;19.12;86.19;101744.13;5116180;28;20052;-73
2021/06/26 00:25:10;;;;;;;19.70;17.77;;;18.70;99.90;;;19.03;86.69;101739.84;5115953;28;20048;-73
2021/06/26 00:27:39;;;;;;;21.88;19.20;;;18.60;99.90;;;19.05;86.94;101745.22;5116508;28;20096;-73
2021/06/26 00:30:11;;;;;;;21.23;18.95;;;18.60;99.90;;;18.95;87.71;101744.53;5115826;28;20048;-73
2021/06/26 00:32:40;;;;;;;23.17;18.05;;;18.50;99.90;;;19.00;87.77;101745.31;5097963;28;20092;-73
2021/06/26 00:35:10;;;;;;;20.55;18.40;;;18.50;99.90;;;19.04;87.34;101740.75;5115774;28;20424;-73
2021/06/26 00:37:39;;;;;;;22.40;20.10;;;18.60;99.90;;;18.84;87.66;101752.84;5115900;28;20055;-73
2021/06/26 00:40:09;;;;;;;22.50;20.17;;;18.50;99.90;;;18.82;88.00;101737.72;5115496;28;20044;-73
2021/06/26 00:42:41;;;;;;;23.90;21.40;;;18.40;99.90;;;18.92;87.84;101740.16;5115634;28;20074;-73
2021/06/26 00:45:14;;;;;;;23.98;20.65;;;18.60;99.90;;;19.05;87.50;101742.53;5115695;28;20092;-73
2021/06/26 00:47:43;;;;;;;24.92;21.48;;;18.70;99.90;;;19.10;87.26;101735.22;5115695;28;20043;-73
2021/06/26 00:50:17;;;;;;;22.52;19.92;;;18.70;99.90;;;19.15;86.77;101742.25;5115228;28;20043;-73
2021/06/26 00:52:46;;;;;;;22.98;20.42;;;18.80;99.90;;;19.19;86.77;101761.81;5115562;28;20126;-73
2021/06/26 00:55:16;;;;;;;22.58;20.20;;;18.80;99.90;;;19.21;86.50;101743.88;5115246;28;20077;-73
2021/06/26 00:57:49;;;;;;;25.83;21.27;;;18.80;99.90;;;19.17;86.56;101740.41;5115734;28;20050;-73
2021/06/26 01:00:21;;;;;;;24.63;20.90;;;18.80;99.90;;;18.89;87.06;101710.72;5115299;28;20043;-73
2021/06/26 01:02:49;;;;;;;22.73;20.08;;;18.70;99.90;;;19.10;87.16;101741.50;5115043;28;20048;-73
2021/06/26 01:05:18;;;;;;;24.30;19.80;;;18.70;99.90;;;19.21;86.85;101741.19;5115229;28;20078;-73
2021/06/26 01:07:47;;;;;;;21.63;19.33;;;18.80;99.90;;;19.27;86.48;101746.41;5114830;28;20059;-73
2021/06/26 01:10:16;;;;;;;22.23;19.73;;;18.90;99.90;;;19.31;86.25;101746.28;5115191;28;20093;-73
2021/06/26 01:12:44;;;;;;;25.63;19.15;;;18.90;99.90;;;19.40;86.09;101742.50;5115114;28;20113;-73
2021/06/26 01:15:17;;;;;;;22.92;19.50;;;19.00;99.90;;;19.43;85.74;101746.00;5096733;28;20043;-73
2021/06/26 01:17:47;;;;;;;22.15;19.38;;;19.00;99.90;;;19.35;85.74;101731.03;5115085;28;20079;-73
2021/06/26 01:20:17;;;;;;;22.33;18.90;;;19.10;99.90;;;19.42;85.52;101746.03;5115130;28;20050;-73
2021/06/26 01:22:54;;;;;;;23.70;19.90;;;19.10;99.90;;;19.50;85.38;101752.06;5114058;28;20482;-73
2021/06/26 01:25:23;;;;;;;27.20;20.52;;;19.10;99.90;;;19.51;85.12;101756.53;5114503;28;20135;-73
2021/06/26 01:27:53;;;;;;;26.17;21.48;;;19.10;99.90;;;19.54;85.03;101751.06;5114786;28;20036;-74
2021/06/26 01:30:25;;;;;;;31.17;21.23;;;19.20;99.90;;;19.58;84.95;101750.97;5114799;28;20039;-73
2021/06/26 01:32:55;;;;;;;27.13;20.85;;;19.20;99.90;;;19.57;84.91;101753.66;5114826;28;20043;-74
2021/06/26 01:35:24;;;;;;;24.73;20.83;;;19.20;99.90;;;19.45;84.83;101733.41;5114438;28;20048;-74
2021/06/26 01:37:54;;;;;;;29.08;20.73;;;19.20;99.90;;;19.37;85.45;101753.34;5114874;28;20031;-74
2021/06/26 01:40:25;;;;;;;29.40;22.38;;;19.10;99.90;;;19.15;86.21;101760.13;5114644;28;20043;-74
2021/06/26 01:42:55;;;;;;;30.98;22.20;;;19.00;99.90;;;19.08;86.96;101758.53;5114624;28;20122;-74
2021/06/26 01:45:24;;;;;;;31.95;23.25;;;18.80;99.90;;;18.96;87.56;101761.50;5114493;28;20051;-74
2021/06/26 01:47:55;;;;;;;34.97;23.38;;;18.70;99.90;;;18.91;88.20;101754.47;5114395;28;20101;-74
2021/06/26 01:50:26;;;;;;;32.25;23.10;;;18.60;99.90;;;18.98;88.19;101752.50;5114465;28;20071;-74
2021/06/26 01:52:56;;;;;;;33.42;23.02;;;18.60;99.90;;;18.92;88.06;101766.97;5114164;28;20550;-74
2021/06/26 01:55:25;;;;;;;34.42;23.15;;;18.60;99.90;;;18.83;88.30;101756.44;5095909;28;20541;-74
2021/06/26 01:57:54;;;;;;;33.83;24.20;;;18.60;99.90;;;18.80;88.66;101764.56;5113886;28;20036;-74
2021/06/26 02:00:25;;;;;;;34.50;24.08;;;18.50;99.90;;;18.63;89.55;101774.81;5113926;28;20044;-74
2021/06/26 02:02:53;;;;;;;;;;;18.30;99.90;;;18.23;91.06;101768.53;5096262;28;20484;-74
2021/06/26 02:05:23;;;;;;;40.05;25.90;;;18.00;99.90;;;18.11;92.36;101765.22;5114126;28;20277;-74
2021/06/26 02:07:53;;;;;;;33.63;24.48;;;17.80;99.90;;;18.11;93.18;101770.59;5114336;28;20039;-74
2021/06/26 02:10:23;;;;;;;36.67;25.02;;;17.70;99.90;;;17.90;94.01;101774.59;5113748;28;20043;-73
2021/06/26 02:12:51;;;;;;;35.60;25.95;;;17.60;99.90;;;18.00;94.04;101779.72;5114576;28;20119;-73
2021/06/26 02:15:21;;;;;;;38.40;27.38;;;17.60;99.90;;;18.03;93.95;101786.81;5113938;28;20040;-73
2021/06/26 02:17:50;;;;;;;38.43;26.93;;;17.60;99.90;;;17.94;94.41;101784.31;5113899;28;20043;-73
2021/06/26 02:20:18;;;;;;;38.28;27.08;;;17.60;99.90;;;17.85;95.07;101755.03;5113746;28;20059;-73
2021/06/26 02:22:47;;;;;;;43.30;28.98;;;17.60;99.90;;;18.21;94.38;101782.88;5113707;28;20051;-74
2021/06/26 02:25:19;;;;;;;35.75;26.73;;;17.80;99.90;;;18.31;93.67;101774.59;5113694;28;20385;-73
2021/06/26 02:27:49;;;;;;;41.53;29.30;;;18.00;99.90;;;18.27;93.33;101778.28;5113784;28;20035;-73
2021/06/26 02:30:18;;;;;;;34.93;25.90;;;18.00;99.90;;;18.39;92.99;101772.63;5113421;28;20059;-73
2021/06/26 02:32:46;;;;;;;35.50;25.95;;;18.10;99.90;;;18.32;93.02;101784.41;5113416;28;20514;-73
2021/06/26 02:35:14;;;;;;;38.22;27.30;;;18.00;99.90;;;18.24;93.20;101743.50;5113328;28;20048;-73
2021/06/26 02:37:43;;;;;;;34.33;27.25;;;18.00;99.90;;;18.52;92.66;101779.53;5113467;28;20044;-73
2021/06/26 02:40:13;;;;;;;37.05;26.63;;;18.10;99.90;;;18.32;92.75;101776.38;5095269;28;20078;-73
2021/06/26 02:42:41;;;;;;;36.17;25.98;;;18.10;99.90;;;18.21;93.60;101775.72;5113197;28;20073;-73
2021/06/26 02:45:13;;;;;;;38.17;27.30;;;17.90;99.90;;;18.25;93.91;101774.75;5113369;28;20057;-73
2021/06/26 02:47:41;;;;;;;38.03;26.42;;;17.90;99.90;;;18.36;93.64;101787.91;5095150;28;20043;-73
2021/06/26 02:50:12;;;;;;;39.58;26.90;;;18.00;99.90;;;18.35;93.27;101748.63;5113443;28;20052;-73
2021/06/26 02:52:40;;;;;;;;;;;18.10;99.90;;;18.43;93.01;101778.81;5113609;28;20390;-73
2021/06/26 02:55:11;;;;;;;35.70;26.73;;;18.20;99.90;;;18.46;93.15;101774.31;5113335;28;19967;-73
2021/06/26 02:57:40;;;;;;;35.22;26.25;;;18.10;99.90;;;18.27;93.73;101777.38;5112918;28;20132;-73
2021/06/26 03:00:12;;;;;;;33.83;27.42;;;18.00;99.90;;;18.10;94.52;101772.38;5113244;28;20046;-73
2021/06/26 03:02:41;;;;;;;34.83;27.85;;;17.80;99.90;;;18.13;95.04;101775.00;5113303;28;20043;-73
2021/06/26 03:05:10;;;;;;;36.03;28.05;;;17.70;99.90;;;18.36;94.44;101774.50;5112913;28;20542;-73
2021/06/26 03:07:39;;;;;;;36.40;29.05;;;17.90;99.90;;;18.51;93.88;101777.75;5113250;28;20066;-73
2021/06/26 03:10:09;;;;;;;34.05;27.55;;;18.10;99.90;;;18.62;93.22;101777.53;5113169;28;20035;-73
2021/06/26 03:12:37;;;;;;;36.65;27.15;;;18.20;99.90;;;18.74;92.63;101778.13;5113142;28;20086;-73
2021/06/26 03:15:07;;;;;;;32.08;26.38;;;18.40;99.90;;;18.88;92.09;101783.16;5112883;28;20397;-73
2021/06/26 03:17:37;;;;;;;32.83;25.33;;;18.50;99.90;;;18.95;91.43;101782.06;5094934;28;20520;-74
2021/06/26 03:20:08;;;;;;;36.30;26.15;;;18.60;99.90;;;18.89;90.95;101758.97;5113110;28;20100;-73
2021/06/26 03:22:38;;;;;;;32.53;25.48;;;18.70;99.90;;;19.03;90.67;101774.72;5113201;28;20059;-74
2021/06/26 03:25:09;;;;;;;33.40;26.13;;;18.80;99.90;;;19.07;90.17;101768.38;5094936;28;20101;-74
2021/06/26 03:27:38;;;;;;;31.65;25.52;;;18.80;99.90;;;19.16;89.81;101796.78;5094482;28;20105;-74
2021/06/26 03:30:08;;;;;;;30.20;25.13;;;18.80;99.90;;;19.20;89.52;101777.00;5094733;28;20071;-74
2021/06/26 03:32:37;;;;;;;30.23;23.60;;;18.90;99.90;;;19.26;89.18;101771.50;5113052;28;20108;-74
2021/06/26 03:35:08;;;;;;;30.00;25.10;;;18.90;99.90;;;18.59;88.77;101657.88;5113090;28;20784;-74
2021/06/26 03:37:36;;;;;;;29.20;24.33;;;19.00;99.90;;;19.32;89.09;101779.34;5094488;28;20052;-74
2021/06/26 03:40:06;;;;;;;30.23;23.92;;;19.00;99.90;;;19.34;88.42;101772.19;5112990;28;20070;-74
2021/06/26 03:42:35;;;;;;;28.83;21.42;;;19.00;99.90;;;19.34;88.11;101778.44;5112738;28;20411;-74
2021/06/26 03:45:05;;;;;;;28.60;23.00;;;19.00;99.90;;;19.41;87.86;101793.47;5113003;28;20040;-74
2021/06/26 03:47:33;;;;;;;28.00;22.65;;;19.00;99.90;;;19.44;87.47;101781.75;5116590;28;20055;-74
2021/06/26 03:50:04;;;;;;;28.08;22.52;;;19.10;99.90;;;19.50;87.50;101789.66;5098493;28;20063;-74
2021/06/26 03:52:33;;;;;;;27.40;22.23;;;19.10;99.90;;;19.50;87.07;101787.84;5116788;28;20040;-74
2021/06/26 03:55:01;;;;;;;24.55;21.38;;;19.20;99.90;;;19.52;86.92;101793.19;5116330;28;20092;-74
2021/06/26 03:57:29;;;;;;;29.65;22.70;;;19.20;99.90;;;19.40;86.94;101789.00;5116538;28;20424;-74
2021/06/26 03:59:59;;;;;;;27.98;22.02;;;19.10;99.90;;;19.51;86.94;101786.06;5116758;28;20067;-74
2021/06/26 04:02:28;;;;;;;26.60;22.50;;;19.20;99.90;;;19.41;86.84;101763.06;5116434;28;20047;-74
2021/06/26 04:04:56;;;;;;;27.10;22.38;;;19.20;99.90;;;19.56;86.68;101785.00;5116202;28;20051;-74
2021/06/26 04:07:26;;;;;;;26.02;21.25;;;19.20;99.90;;;19.52;86.69;101793.19;5098067;28;20415;-74
2021/06/26 04:09:54;;;;;;;26.50;21.85;;;19.20;99.90;;;19.44;86.39;101763.84;5116422;28;20093;-74
2021/06/26 04:12:23;;;;;;;25.90;21.30;;;19.20;99.90;;;19.56;86.56;101787.69;5116055;28;20079;-73
2021/06/26 04:14:51;;;;;;;24.38;20.00;;;19.20;99.90;;;19.58;86.57;101793.91;5115984;28;20043;-74
2021/06/26 04:17:20;;;;;;;25.70;21.70;;;19.20;99.90;;;19.59;86.62;101794.75;5097904;28;20051;-74
2021/06/26 04:19:48;;;;;;;25.30;20.33;;;19.20;99.90;;;19.62;86.43;101800.06;5115939;28;20401;-74
2021/06/26 04:22:17;;;;;;;27.75;21.55;;;19.30;99.90;;;19.57;86.44;101793.91;5116058;28;20465;-74
2021/06/26 04:24:47;;;;;;;25.90;21.85;;;19.30;99.90;;;19.65;86.21;101803.56;5116078;28;20040;-74
2021/06/26 04:27:15;;;;;;;27.90;21.60;;;19.30;99.90;;;19.68;86.04;101799.91;5116388;28;20092;-74
2021/06/26 04:29:43;;;;;;;27.17;21.63;;;19.30;99.90;;;19.66;86.03;101796.38;5097752;28;20043;-74
2021/06/26 04:32:14;;;;;;;25.73;21.65;;;19.40;99.90;;;19.69;85.88;101801.66;5097577;28;20055;-74
2021/06/26 04:34:42;;;;;;;27.98;21.92;;;19.30;99.90;;;19.71;85.86;101798.03;5115904;28;20112;-74
2021/06/26 04:37:11;;;;;;;24.77;21.38;;;19.40;99.90;;;19.15;85.64;101695.75;5115850;28;20047;-73
2021/06/26 04:39:40;;;;;;;28.15;22.80;;;19.40;99.90;;;19.71;85.87;101791.75;5097450;28;20070;-73
2021/06/26 04:42:10;;;;;;;27.95;22.75;;;19.40;99.90;;;19.73;85.76;101792.59;5115983;28;20065;-73
2021/06/26 04:44:38;;;;;;;30.00;22.25;;;19.40;99.90;;;19.75;85.71;101802.38;5115700;28;20047;-74
2021/06/26 04:47:08;;;;;;;31.23;24.83;;;19.40;99.90;;;19.68;85.83;101799.91;5115634;28;20126;-74
2021/06/26 04:49:37;;;;;;;30.77;24.58;;;19.40;99.90;;;19.62;85.96;101779.47;5097513;28;20055;-74
2021/06/26 04:52:06;;;;;;;30.50;24.75;;;19.40;99.90;;;19.74;85.95;101803.28;5097509;28;20035;-74
2021/06/26 04:54:35;;;;;;;33.15;27.02;;;19.40;99.90;;;19.54;86.39;101802.97;5115729;28;20051;-73
2021/06/26 04:57:04;;;;;;;37.40;28.27;;;19.20;99.90;;;19.41;86.86;101797.94;5115391;28;20043;-74
2021/06/26 04:59:34;;;;;;;33.22;27.90;;;19.10;99.90;;;19.35;87.70;101806.16;5097317;28;20051;-73
2021/06/26 05:02:02;;;;;;;38.27;28.70;;;19.00;99.90;;;19.23;87.88;101801.06;5115339;28;20458;-73
2021/06/26 05:04:31;;;;;;;34.40;29.33;;;18.90;99.90;;;19.20;88.27;101795.78;5115160;28;20293;-75
2021/06/26 05:07:00;;;;;;;35.88;29.23;;;18.90;99.90;;;19.18;88.19;101800.31;5115204;28;20457;-74
2021/06/26 05:09:28;;;;;;;34.60;28.85;;;18.90;99.90;;;19.02;89.45;101812.31;5114929;28;20063;-73
2021/06/26 05:11:56;;;;;;;34.70;30.70;;;18.80;99.90;;;18.93;89.29;101806.25;5115320;28;20055;-73
2021/06/26 05:14:25;;;;;;;39.58;31.23;;;18.70;99.90;;;18.88;90.02;101802.81;5115089;28;20051;-74
2021/06/26 05:16:55;;;;;;;36.72;31.42;;;18.70;99.90;;;19.02;89.93;101801.59;5115116;28;20051;-74
2021/06/26 05:19:23;;;;;;;39.90;33.28;;;18.70;99.90;;;18.91;89.77;101804.53;5115366;28;20039;-73
2021/06/26 05:21:52;;;;;;;40.08;31.75;;;18.70;99.90;;;19.00;89.96;101795.38;5114699;28;20048;-73
2021/06/26 05:24:21;;;;;;;40.03;32.67;;;18.70;99.90;;;18.82;90.72;101808.31;5114581;28;20054;-73
2021/06/26 05:26:49;;;;;;;42.35;33.20;;;18.50;99.90;;;18.83;90.99;101801.16;5096279;28;20493;-73
2021/06/26 05:29:18;;;;;;;43.63;34.22;;;18.50;99.90;;;18.70;91.08;101808.59;5114822;28;20047;-73
2021/06/26 05:31:46;;;;;;;42.05;34.92;;;18.50;99.90;;;18.64;91.60;101806.03;5114762;28;20118;-73
2021/06/26 05:34:16;;;;;;;46.17;37.08;;;18.40;99.90;;;18.59;92.50;101807.94;5114775;28;20075;-74
2021/06/26 05:36:44;;;;;;;43.63;36.50;;;18.30;99.90;;;18.71;92.20;101807.69;5096358;28;20512;-73
2021/06/26 05:39:13;;;;;;;44.78;37.28;;;18.40;99.90;;;18.59;92.50;101807.94;5114466;28;20435;-74
2021/06/26 05:41:41;;;;;;;45.80;37.10;;;18.30;99.90;;;18.67;92.53;101811.34;5114594;28;20051;-74
2021/06/26 05:44:10;;;;;;;49.67;38.78;;;18.40;99.90;;;18.48;92.95;101817.16;5114435;28;20044;-74
2021/06/26 05:46:38;;;;;;;49.65;40.40;;;18.20;99.90;;;18.57;93.61;101807.09;5114507;28;20039;-74
2021/06/26 05:49:06;;;;;;;50.03;40.08;;;18.30;99.90;;;17.96;93.14;101686.97;5114442;28;20047;-73
2021/06/26 05:51:36;;;;;;;52.67;39.90;;;18.30;99.90;;;18.39;94.09;101814.63;5096170;28;20055;-73
2021/06/26 05:54:08;;;;;;;53.60;41.47;;;18.10;99.90;;;18.49;94.13;101808.16;5114342;28;20055;-73
2021/06/26 05:56:36;;;;;;;51.83;41.28;;;18.20;99.90;;;18.55;94.33;101808.94;5114337;28;20044;-74
2021/06/26 05:59:04;;;;;;;54.88;42.15;;;18.20;99.90;;;18.41;94.12;101808.31;5114242;28;20032;-73
2021/06/26 06:01:33;;;;;;;51.03;41.63;;;18.20;99.90;;;18.67;94.29;101805.09;5114166;28;20398;-73
2021/06/26 06:04:01;;;;;;;55.88;43.45;;;18.30;99.90;;;18.70;93.46;101805.00;5114349;28;20126;-73
2021/06/26 06:06:30;;;;;;;62.13;45.58;;;18.40;99.90;;;18.76;93.30;101812.91;5114024;28;20043;-73
2021/06/26 06:09:00;;;;;;;59.42;45.15;;;18.50;99.90;;;18.69;93.19;101806.84;5113509;28;20088;-73
2021/06/26 06:11:28;;;;;;;59.05;45.85;;;18.50;99.90;;;18.80;93.23;101801.22;5114353;28;20044;-73
2021/06/26 06:13:56;;;;;;;56.15;44.10;;;18.50;99.90;;;18.97;93.04;101808.88;5113923;28;20067;-73
2021/06/26 06:16:25;;;;;;;61.15;46.20;;;18.60;99.90;;;18.63;92.78;101814.13;5113846;28;20078;-73
2021/06/26 06:18:54;;;;;;;61.35;44.90;;;18.50;99.90;;;18.43;94.25;101817.22;5113778;28;20046;-73
2021/06/26 06:21:22;;;;;;;65.30;47.55;;;18.20;99.90;;;18.12;94.73;101726.84;5113596;28;20040;-73
2021/06/26 06:23:51;;;;;;;61.88;46.88;;;18.30;99.90;;;18.60;94.46;101819.56;5113800;28;20082;-73
2021/06/26 06:26:20;;;;;;;62.20;47.03;;;18.30;99.90;;;18.62;94.63;101823.94;5113620;28;20093;-73
2021/06/26 06:28:49;;;;;;;64.20;49.13;;;18.30;99.90;;;18.71;94.67;101826.44;5113726;28;20043;-73
2021/06/26 06:31:17;;;;;;;63.72;47.58;;;18.40;99.90;;;18.76;94.49;101823.63;5113762;28;20070;-73
2021/06/26 06:33:46;;;;;;;61.40;48.17;;;18.50;99.90;;;18.74;94.34;101804.91;5113343;28;20447;-73
2021/06/26 06:36:14;;;;;;;64.22;48.25;;;18.50;99.90;;;18.76;94.64;101827.22;5113575;28;20417;-73
2021/06/26 06:38:43;;;;;;;60.88;48.30;;;18.50;99.90;;;18.95;94.25;101827.66;5113655;28;20096;-73
2021/06/26 06:41:11;;;;;;;60.28;46.35;;;18.60;99.90;;;18.90;93.80;101824.22;5113637;28;20039;-73
2021/06/26 06:43:41;;;;;;;64.20;48.83;;;18.70;99.90;;;18.73;93.93;101821.94;5113496;28;20039;-73
2021/06/26 06:46:09;;;;;;;64.93;49.17;;;18.60;99.90;;;18.58;95.29;101826.75;5113553;28;20043;-73
2021/06/26 06:48:38;;;;;;;63.92;48.08;;;18.30;99.90;;;18.77;95.79;101829.00;5113482;28;20323;-73
2021/06/26 06:51:06;;;;;;;64.85;49.70;;;18.40;99.90;;;18.88;95.20;101826.94;5113154;28;20063;-73
2021/06/26 06:53:35;;;;;;;66.43;48.65;;;18.50;99.90;;;19.10;94.69;101831.78;5095163;28;20040;-73
2021/06/26 06:56:04;;;;;;;64.18;49.30;;;18.70;99.90;;;18.96;93.99;101831.22;5113212;28;20126;-73
2021/06/26 06:58:32;;;;;;;69.63;51.38;;;18.70;99.90;;;19.18;93.94;101825.31;5113365;28;20048;-74
2021/06/26 07:01:03;;;;;;;61.97;49.00;;;18.90;99.90;;;19.10;93.68;101826.44;5113262;28;20035;-73
2021/06/26 07:03:31;;;;;;;68.22;47.42;;;18.80;99.90;;;19.24;93.53;101827.84;5113169;28;20039;-73
2021/06/26 07:06:00;;;;;;;65.63;49.33;;;18.90;99.90;;;19.34;92.85;101824.06;5113259;28;20067;-74
2021/06/26 07:08:28;;;;;;;58.70;46.60;;;19.10;99.90;;;19.46;92.55;101831.78;5112914;28;20048;-74
2021/06/26 07:10:57;;;;;;;58.65;46.25;;;19.20;99.90;;;19.22;92.12;101829.69;5113337;28;20048;-74
2021/06/26 07:13:25;;;;;;;59.97;47.33;;;19.10;99.90;;;19.20;93.03;101831.50;5112960;28;20096;-74
2021/06/26 07:15:54;;;;;;;58.22;46.60;;;19.00;99.90;;;19.22;93.03;101827.00;5094863;28;20065;-74
2021/06/26 07:18:25;;;;;;;52.78;42.85;;;19.00;99.90;;;18.79;92.78;101714.53;5113161;28;20077;-73
2021/06/26 07:20:55;;;;;;;50.28;40.90;;;19.10;99.90;;;19.33;92.17;101826.78;5114272;28;20047;-74
2021/06/26 07:23:24;;;;;;;50.50;39.97;;;19.10;99.90;;;18.88;92.80;101829.63;5117417;28;20066;-74
2021/06/26 07:25:52;;;;;;;45.80;38.55;;;18.80;99.90;;;19.09;92.80;101836.28;5098699;28;20447;-74
2021/06/26 07:28:21;;;;;;;43.63;35.88;;;18.90;99.90;;;19.36;92.12;101832.06;5117018;28;20093;-74
2021/06/26 07:30:49;;;;;;;45.85;36.60;;;19.00;99.90;;;19.37;91.12;101826.69;5117034;28;20070;-75
2021/06/26 07:33:18;;;;;;;41.70;34.65;;;19.10;99.90;;;19.55;91.02;101828.00;5117078;28;20044;-75
2021/06/26 07:35:48;;;;;;;43.65;33.38;;;19.20;99.90;;;19.57;90.03;101835.06;5117145;28;20074;-75
2021/06/26 07:38:16;;;;;;;41.13;32.93;;;19.30;99.90;;;19.36;90.05;101840.09;5116882;28;20047;-75
2021/06/26 07:40:45;;;;;;;42.45;33.78;;;19.20;99.90;;;19.27;91.12;101837.63;5116798;28;20296;-74
2021/06/26 07:43:13;;;;;;;43.90;34.15;;;19.00;99.90;;;19.16;91.57;101840.59;5116639;28;20501;-74
2021/06/26 07:45:42;;;;;;;46.08;35.63;;;18.90;99.90;;;19.32;91.26;101833.00;5116875;28;20078;-75
2021/06/26 07:48:10;;;;;;;41.97;33.08;;;19.00;99.90;;;18.46;90.55;101744.84;5098104;28;20089;-75
2021/06/26 07:50:39;;;;;;;40.40;32.78;;;18.80;99.90;;;19.11;91.32;101823.69;5116620;28;20036;-75
2021/06/26 07:53:08;;;;;;;40.53;32.63;;;18.80;99.90;;;19.51;90.88;101823.63;5116670;28;20044;-74
2021/06/26 07:55:37;;;;;;;42.40;33.47;;;19.10;99.90;;;19.28;90.17;101826.00;5116599;28;20066;-74
2021/06/26 07:58:05;;;;;;;46.17;34.10;;;19.00;99.90;;;19.55;89.97;101828.88;5116601;28;20281;-75
2021/06/26 08:00:34;;;;;;;40.80;33.10;;;19.30;99.90;;;19.48;89.02;101821.91;5116603;28;20044;-74
2021/06/26 08:03:02;;;;;;;41.38;32.28;;;19.30;99.90;;;19.30;89.74;101824.16;5116540;28;20047;-75
2021/06/26 08:05:31;;;;;;;40.33;33.38;;;19.10;99.90;;;19.34;89.87;101807.06;5116054;28;20414;-74
2021/06/26 08:07:59;;;;;;;38.95;33.25;;;19.10;99.90;;;19.69;89.18;101828.50;5116438;28;20032;-74
2021/06/26 08:10:29;;;;;;;40.75;34.45;;;19.30;99.90;;;19.78;88.41;101833.66;5098024;28;20058;-74
2021/06/26 08:12:58;;;;;;;41.70;33.20;;;19.40;99.90;;;19.86;88.12;101828.94;5116406;28;20044;-75
2021/06/26 08:15:27;;;;;;;43.35;35.28;;;19.60;99.90;;;19.97;87.58;101824.16;5116276;28;20051;-74
2021/06/26 08:17:56;;;;;;;38.17;31.77;;;19.70;99.90;;;20.04;86.75;101830.22;5116290;28;20116;-74
2021/06/26 08:20:25;;;;;;;41.30;34.17;;;19.70;99.90;;;20.04;86.80;101832.91;5116423;28;20297;-74
2021/06/26 08:22:53;;;;;;;41.92;34.25;;;19.70;99.90;;;20.20;85.83;101829.81;5116137;28;20100;-74
2021/06/26 08:25:22;;;;;;;42.75;33.67;;;19.80;99.90;;;19.88;85.92;101824.41;5115865;28;20457;-74
2021/06/26 08:27:52;;;;;;;39.78;33.95;;;19.70;99.90;;;19.54;87.74;101826.22;5115978;28;20397;-74
2021/06/26 08:30:22;;;;;;;42.10;34.88;;;19.40;99.90;;;19.95;88.08;101825.13;5115996;28;20031;-74
2021/06/26 08:32:52;;;;;;;40.30;34.03;;;19.50;99.90;;;20.11;87.23;101821.94;5115450;28;20042;-74
2021/06/26 08:35:21;;;;;;;43.40;34.70;;;19.80;99.90;;;19.76;86.77;101824.75;5097648;28;20093;-74
2021/06/26 08:37:50;;;;;;;43.60;35.15;;;19.50;99.90;;;19.94;86.29;101824.22;5115902;28;20050;-74
2021/06/26 08:40:22;;;;;;;39.83;33.85;;;19.50;99.90;;;20.18;86.56;101819.97;5115681;28;20454;-74
2021/06/26 08:42:53;;;;;;;39.60;34.70;;;19.80;99.90;;;20.35;86.06;101823.97;5115790;28;20047;-74
2021/06/26 08:45:21;;;;;;;48.67;36.60;;;20.00;99.90;;;20.47;84.82;101829.00;5115406;28;20035;-74
2021/06/26 08:47:53;;;;;;;45.15;35.80;;;20.20;99.90;;;20.23;84.43;101832.38;5115691;28;20397;-74
2021/06/26 08:50:25;;;;;;;42.20;34.38;;;20.10;99.90;;;20.15;84.37;101791.38;5115696;28;20063;-74
2021/06/26 08:52:54;;;;;;;40.22;33.97;;;20.00;99.90;;;20.71;84.19;101829.19;5115328;28;20511;-74
2021/06/26 08:55:23;;;;;;;36.97;31.65;;;20.30;99.90;;;20.83;84.02;101809.97;5096946;28;20047;-74
2021/06/26 08:57:53;;;;;;;42.20;34.42;;;20.60;99.90;;;20.73;81.72;101836.25;5115480;28;20051;-74
2021/06/26 09:00:24;;;;;;;43.45;35.47;;;20.60;99.90;;;19.85;82.08;101738.56;5115469;28;20047;-74
2021/06/26 09:03:04;;;;;;;39.15;33.42;;;20.20;99.90;;;20.52;82.64;101831.53;5115190;28;20093;-74
2021/06/26 09:05:33;;;;;;;38.20;31.70;;;20.20;99.90;;;20.97;82.76;101840.88;5115260;28;20044;-74
2021/06/26 09:08:13;;;;;;;40.33;33.50;;;20.60;99.90;;;21.25;82.87;101838.22;5115179;28;20047;-74
2021/06/26 09:10:45;;;;;;;43.80;36.05;;;20.80;99.90;;;21.39;82.21;101841.31;5115323;28;20058;-74
2021/06/26 09:13:20;;;;;;;46.88;38.33;;;21.10;99.90;;;21.50;81.05;101836.47;5115048;28;20043;-74
2021/06/26 09:15:49;;;;;;;48.40;39.72;;;21.20;99.90;;;20.86;80.25;101837.66;5115157;28;20092;-74
2021/06/26 09:18:20;;;;;;;47.22;39.70;;;20.80;99.90;;;20.81;80.68;101836.06;5114815;28;20078;-74
2021/06/26 09:20:52;;;;;;;45.15;38.80;;;20.50;99.90;;;21.04;81.12;101839.78;5114858;28;20072;-74
2021/06/26 09:23:30;;;;;;;47.92;39.95;;;20.70;99.90;;;21.19;80.55;101819.59;5114618;28;20048;-74
2021/06/26 09:26:10;;;;;;;45.50;38.65;;;21.00;99.90;;;21.21;80.24;101798.88;5114910;28;20047;-74
2021/06/26 09:28:41;;;;;;;45.95;38.72;;;21.10;99.90;;;21.58;80.28;101838.91;5114867;28;20116;-74
2021/06/26 09:31:15;;;;;;;;;;;21.20;99.90;;;21.80;80.63;101847.97;5097106;28;20047;-74
2021/06/26 09:33:44;;;;;;;43.67;37.45;;;21.50;99.90;;;21.84;80.40;101833.50;5114856;28;19920;-74
2021/06/26 09:36:13;;;;;;;47.75;39.08;;;21.60;99.90;;;21.95;79.12;101845.66;5094900;28;20096;-73
2021/06/26 09:38:59;;;;;;;42.90;37.03;;;21.70;99.90;;;21.91;77.05;101844.00;5114583;28;20043;-74
2021/06/26 09:41:29;;;;;;;45.15;37.78;;;21.70;99.90;;;21.95;76.09;101855.59;5114449;28;20040;-73
2021/06/26 09:44:09;;;;;;;45.90;38.00;;;21.80;99.90;;;21.46;76.52;101854.56;5113631;28;20043;-73
2021/06/26 09:46:48;;;;;;;44.88;36.90;;;21.30;99.90;;;21.56;76.85;101855.13;5114485;28;20051;-73
2021/06/26 09:49:27;;;;;;;45.78;38.67;;;21.30;99.90;;;21.69;76.99;101856.47;5114308;28;20071;-73
2021/06/26 09:52:01;;;;;;;45.10;40.17;;;21.30;99.90;;;21.77;76.41;101853.50;5114451;28;20039;-73
2021/06/26 09:54:31;;;;;;;47.03;38.60;;;21.50;99.90;;;21.55;75.45;101851.53;5114365;28;20511;-74
2021/06/26 09:57:00;;;;;;;46.40;38.78;;;21.40;99.90;;;21.60;77.98;101853.19;5114349;28;20050;-73
2021/06/26 09:59:35;;;;;;;42.97;36.97;;;21.30;99.90;;;21.64;74.69;101857.56;5114147;28;20048;-73
2021/06/26 10:02:04;;;;;;;45.35;39.97;;;21.40;99.90;;;21.51;74.11;101857.06;5095996;28;20100;-73
2021/06/26 10:04:33;;;;;;;45.58;39.65;;;21.20;99.90;;;21.41;73.39;101844.84;5095900;28;20039;-73
2021/06/26 10:07:06;;;;;;;47.33;41.03;;;21.10;99.90;;;21.45;73.99;101851.88;5114025;28;20048;-73
2021/06/26 10:09:35;;;;;;;47.47;41.00;;;21.10;99.90;;;21.37;74.76;101857.53;5095198;28;20052;-73